Whiteriver, Arizona
Current Conditions -  °F | °C
As of 10:55 PM on Friday 19 Dec 2014 (Local Time) from KSOW Reporting Station
Clear Clear  
Wind Chill: -5°   Ceiling: Unl
Heat Index: -5°   Visibility: 10mi
Dew Point: -6°   Wind: 0mph
Humidity: 93%   Direction: NA
Pressure: 30.22"   Gusts: NA
Location:  33.84°N, 109.96°W
Report Text: KSOW 200555Z AUTO 00000KT 10SM CLR M05/M06 A3022 RMK AO2
Loading
Personal Weather Stations






























Interactive Weather Map New forecast layout! Learn more

10-Day Weather Forecast

Advertisements
Track Severe Weather on mobile